Flight Track Log - Related Links

Times and Time Zones

All times are in EDT time to prevent confusion due to time zone crossing. See the NGF0DR flight status page for this flight to view local times or setup timezone preferences in your user account.

Time Position Orientation Groundspeed Altitude Reporting Facility
EDT Latitude Longitude Course Direction KTS MPH feet Rate Location/Type
Wed 08:45:57 AM 41.5128 -81.6922 302° West 93 107 900  Level Cleveland Center
Wed 08:46:27 AM 41.5208 -81.7092 302° West 109 125 1,300 857 Climbing Cleveland Center
Wed 08:47:28 AM 41.5561 -81.7125 356° North 128 147 2,200 879 Climbing Cleveland Center
Wed 08:48:23 AM 41.5833 -81.7103 North 135 155 3,000 835 Climbing Cleveland Center
Wed 08:49:23 AM 41.5711 -81.6711 113° Southeast 177 204 3,800 793 Climbing Cleveland Center
Wed 08:50:24 AM 41.5256 -81.6619 171° South 152 175 4,600 836 Climbing Cleveland Center
Wed 08:51:25 AM 41.4944 -81.6228 137° Southeast 165 190 5,500 793 Climbing Cleveland Center
Wed 08:52:25 AM 41.4594 -81.5833 140° Southeast 165 190 6,200 744 Climbing Cleveland Center
Wed 08:53:26 AM 41.4222 -81.5439 142° Southeast 168 193 7,000 745 Climbing Cleveland Center
Wed 08:54:42 AM 41.3811 -81.4964 139° Southeast 188 216 7,900 706 Climbing Cleveland Center
Wed 08:55:42 AM 41.3417 -81.4569 143° Southeast 194 223 8,600 600 Climbing Cleveland Center
Wed 08:56:42 AM 41.3003 -81.4067 138° Southeast 189 217 9,100 550 Climbing Cleveland Center
Wed 08:57:42 AM 41.2589 -81.3647 143° Southeast 184 212 9,700 750 Climbing Cleveland Center
Wed 08:58:42 AM 41.2197 -81.3228 141° Southeast 184 212 10,600 700 Climbing Cleveland Center
Wed 08:59:42 AM 41.1803 -81.2811 142° Southeast 184 212 11,100 250 Climbing Cleveland Center
Wed 09:00:42 AM 41.1347 -81.2311 140° Southeast 192 221 11,100  Level Cleveland Center
Wed 09:01:42 AM 41.0892 -81.1836 142° Southeast 204 235 11,100  Level Cleveland Center
Wed 09:02:42 AM 41.0392 -81.1419 148° Southeast 209 241 11,100  Level Cleveland Center
Wed 09:03:42 AM 40.9894 -81.0975 146° Southeast 214 246 11,100  Level Cleveland Center
Wed 09:04:42 AM 40.9458 -81.0586 146° Southeast 214 246 11,100  Level Cleveland Center
Wed 09:05:42 AM 40.9003 -81.0117 142° Southeast 214 246 11,100  Level Cleveland Center
Wed 09:06:42 AM 40.8503 -80.9675 146° Southeast 214 246 11,100 -50 Level Cleveland Center
Wed 09:07:42 AM 40.8006 -80.9258 148° Southeast 214 246 11,000 -50 Descending Cleveland Center
Wed 09:08:42 AM 40.7525 -80.8844 147° Southeast 214 246 11,000  Level Cleveland Center
Wed 09:09:42 AM 40.7028 -80.8406 146° Southeast 214 246 11,000  Level Cleveland Center
Wed 09:10:42 AM 40.6528 -80.7967 146° Southeast 219 252 11,000  Level Cleveland Center
Wed 09:11:42 AM 40.6050 -80.7528 145° Southeast 214 246 11,000  Level Cleveland Center
Wed 09:12:42 AM 40.5528 -80.7089 147° Southeast 214 246 11,000 50 Level Cleveland Center
Wed 09:13:42 AM 40.5028 -80.6678 148° Southeast 214 246 11,100  Climbing Cleveland Center
Wed 09:14:42 AM 40.4528 -80.6214 145° Southeast 214 246 11,000 -16 Descending Cleveland Center
Wed 09:16:00 AM 40.4006 -80.5761 147° Southeast  Level FlightAware Approximate
Wed 09:19:54 AM 40.1878 -80.3900 147° Southeast 240 276 11,000  Level Cleveland Center
Wed 09:20:54 AM 40.1336 -80.3469 149° Southeast 234 269 11,000  Level Cleveland Center
Wed 09:21:54 AM 40.0814 -80.3008 146° Southeast 234 269 11,000  Level Cleveland Center
Wed 09:22:54 AM 40.0314 -80.2578 147° Southeast 229 264 11,000  Level Cleveland Center
Wed 09:23:00 AM 40.1193 -80.3332 147° Southeast  Level FlightAware Approximate
Wed 09:23:54 AM 39.9789 -80.2147 148° Southeast 229 264 11,000  Level Cleveland Center
Wed 09:24:00 AM 40.0790 -80.2986 147° Southeast  Level FlightAware Approximate
Wed 09:24:54 AM 39.9206 -80.1661 147° Southeast 229 264 11,000  Level Cleveland Center
Wed 09:25:54 AM 39.8683 -80.1206 146° Southeast 229 264 11,000  Level Cleveland Center
Wed 09:26:54 AM 39.8158 -80.0778 148° Southeast 229 264 11,000  Level Cleveland Center
Wed 09:27:54 AM 39.7656 -80.0322 145° Southeast 229 264 11,000  Level Cleveland Center
Wed 09:28:54 AM 39.7133 -79.9894 148° Southeast 229 264 11,000  Level Cleveland Center
Wed 09:29:54 AM 39.6653 -79.9494 147° Southeast 224 258 11,000  Level Cleveland Center
Wed 09:31:01 AM 39.6094 -79.9042 148° Southeast 209 241 11,000 -48 Level Washington Center
Wed 09:31:59 AM 39.5611 -79.8608 145° Southeast 209 241 10,900 -51 Descending Washington Center
Wed 09:32:59 AM 39.5128 -79.8122 142° Southeast 209 241 10,900  Level Washington Center
Wed 09:34:01 AM 39.4622 -79.7636 143° Southeast 216 249 10,900  Level Washington Center
Wed 09:34:59 AM 39.4161 -79.7153 141° Southeast 216 249 10,900  Level Washington Center
Wed 09:35:59 AM 39.3675 -79.6669 142° Southeast 216 249 10,900  Level Washington Center
Wed 09:37:00 AM 39.3192 -79.6158 141° Southeast 216 249 10,900 49 Level Washington Center
Wed 09:38:01 AM 39.2731 -79.5678 141° Southeast 216 249 11,000 50 Climbing Washington Center
Wed 09:38:59 AM 39.2244 -79.5194 142° Southeast 216 249 11,000 50 Level Washington Center
Wed 09:40:00 AM 39.1761 -79.4714 142° Southeast 216 249 11,100  Climbing Washington Center
Wed 09:41:01 AM 39.1278 -79.4206 141° Southeast 216 249 11,000 -50 Descending Washington Center
Wed 09:41:59 AM 39.0811 -79.3753 143° Southeast 216 249 11,000 51 Level Washington Center
Wed 09:42:59 AM 39.0325 -79.3300 144° Southeast 228 262 11,100  Climbing Washington Center
Wed 09:44:00 AM 38.9839 -79.2822 143° Southeast 228 262 11,000 -50 Descending Washington Center
Wed 09:45:00 AM 38.9375 -79.2344 141° Southeast 223 257 11,000 50 Level Washington Center
Wed 09:46:00 AM 38.8889 -79.1867 143° Southeast 217 250 11,100  Climbing Washington Center
Wed 09:47:01 AM 38.8444 -79.1419 142° Southeast 217 250 11,000  Descending Washington Center
Wed 09:47:59 AM 38.7978 -79.0972 143° Southeast 212 244 11,100  Climbing Washington Center
Wed 09:48:59 AM 38.7531 -79.0522 142° Southeast 212 244 11,000 -248 Descending Washington Center
Wed 09:50:00 AM 38.7025 -79.0047 144° Southeast 217 250 10,600 -397 Descending Washington Center
Wed 09:51:00 AM 38.6536 -78.9547 141° Southeast 217 250 10,200 -298 Descending Washington Center
Wed 09:52:01 AM 38.6031 -78.9044 142° Southeast 222 255 10,000 -50 Descending Washington Center
Wed 09:53:01 AM 38.5583 -78.8600 142° Southeast 217 250 10,100  Climbing Washington Center
Wed 09:54:00 AM 38.5156 -78.8211 145° Southeast 212 244 10,000 -50 Descending Washington Center
Wed 09:55:00 AM 38.4750 -78.7794 141° Southeast 206 237 10,000  Level Washington Center
Wed 09:56:00 AM 38.4322 -78.7378 143° Southeast 194 223 10,000  Level Washington Center
Wed 09:57:01 AM 38.3936 -78.6992 142° Southeast 194 223 10,000 -252 Level Washington Center
Wed 09:57:59 AM 38.3489 -78.6575 144° Southeast 194 223 9,500 -763 Descending Washington Center
Wed 09:58:59 AM 38.3061 -78.6133 141° Southeast 194 223 8,500 -893 Descending Washington Center
Wed 10:00:00 AM 38.2656 -78.5747 143° Southeast 189 217 7,700 -535 Descending Washington Center
Wed 10:01:36 AM 38.2000 -78.5000 138° Southeast 153 176 7,100 -423 Descending Potomac TRACON
Wed 10:02:36 AM 38.1667 -78.4667 142° Southeast 168 193 6,600 -700 Descending Potomac TRACON
Wed 10:03:36 AM 38.1167 -78.4500 165° South 159 183 5,700 -800 Descending Potomac TRACON
Wed 10:04:36 AM 38.0667 -78.4500 180° South 172 198 5,000 -526 Descending Potomac TRACON
Wed 10:05:30 AM 38.0333 -78.4667 201° Southwest 161 185 4,700 -579 Descending Potomac TRACON
Wed 10:06:30 AM 37.9833 -78.4833 195° South 172 198 3,900 -700 Descending Potomac TRACON
Wed 10:07:30 AM 37.9500 -78.5000 202° Southwest 158 182 3,300 -300 Descending Potomac TRACON
Wed 10:08:30 AM 37.9500 -78.5167 270° West 144 166 3,300  Level Potomac TRACON
Wed 10:09:24 AM 37.9833 -78.5167 360° North 143 165 3,300 -211 Level Potomac TRACON
Wed 10:10:24 AM 38.0167 -78.5000 21° North 149 171 2,900 -550 Descending Potomac TRACON
Wed 10:11:24 AM 38.0500 -78.4833 21° North 132 152 2,200 -650 Descending Potomac TRACON
Wed 10:12:24 AM 38.0833 -78.4833 360° North 125 144 1,600 -500 Descending Potomac TRACON
Wed 10:13:24 AM 38.1167 -78.4667 21° North 94 108 1,200 -400 Descending Potomac TRACON
Wed 10:15:00 AM 38.1333 -78.4500 19° North  Level FlightAware Approximate
Wed 10:22:00 AM 38.1386 -78.4529 19° North  Level Estimated
Wed 10:23:00 AM 38.1333 -78.4500 19° North  Level FlightAware Approximate
Wed 10:24:00 AM 38.1386 -78.4529 19° North  Level Estimated
Wed 10:25:00 AM 38.1333 -78.4500 19° North  Level FlightAware Approximate
Wed 10:26:00 AM 38.1386 -78.4529 19° North  Level Estimated

Login

Don't have an account? Register now (free) for customized features, flight alerts, and more!